Fabian Garcia SC

2021-07-24 21:40:00

  • imperial
Date Time Air Temperature Relative Humidity Dewpoint Windchill Heat Index Wind Speed Wind Dir. Rain Solar Radiation Soil Temperature
2m 2m 3m 3m 10cm
US/Mountain F % F F F MPH deg in MJ/m^2 F
max avg avg
2021-07-23 21:45:00 73.1 70.4 62.9 73.1 73.1 4.7 10.1 4.2 340.2 306.3 0.00 0.0000000 85.3
2021-07-23 21:50:00 72.6 69.7 62.2 72.6 72.6 3.3 8.3 5.3 330.5 321.8 0.00 0.0000081 85.2
2021-07-23 21:55:00 72.2 69.8 61.7 72.2 72.2 3.1 11.5 6.0 260.5 318.2 0.00 0.0000040 85.1
2021-07-23 22:00:00 71.6 70.6 61.6 71.6 71.6 10.8 12.4 8.7 4.2 329.1 0.00 0.0000020 85.0
2021-07-23 22:05:00 71.1 71.0 61.2 71.1 71.1 9.9 13.3 10.0 342.2 331.3 0.00 0.0000061 85.0
2021-07-23 22:10:00 70.7 74.4 62.1 70.7 70.7 4.2 11.5 6.3 312.5 321.7 0.00 0.0000061 84.9
2021-07-23 22:15:00 70.1 76.8 62.5 70.1 70.1 5.3 11.7 7.4 329.3 325.6 0.00 0.0000040 84.8
2021-07-23 22:20:00 70.0 76.7 62.3 70.0 70.0 7.8 13.0 8.0 324.5 331.4 0.00 0.0000121 84.8
2021-07-23 22:25:00 69.7 75.2 61.5 69.7 69.7 5.3 12.4 7.6 341.5 333.6 0.00 0.0000101 84.7
2021-07-23 22:30:00 69.8 73.3 60.9 69.8 69.8 8.8 12.6 8.8 0.4 334.9 0.00 0.0000000 84.6
2021-07-23 22:35:00 69.9 74.1 61.3 69.9 69.9 7.4 10.8 7.8 335.4 333.4 0.00 0.0000000 84.5
2021-07-23 22:40:00 69.9 73.1 60.9 69.9 69.9 9.6 11.5 7.6 0.7 337.1 0.00 0.0000000 84.4
2021-07-23 22:45:00 69.6 72.9 60.5 69.6 69.6 6.0 11.9 7.8 298.4 332.4 0.00 0.0000000 84.3
2021-07-23 22:50:00 69.7 72.5 60.5 69.7 69.7 7.2 12.6 7.7 0.2 337.7 0.00 0.0000000 84.3
2021-07-23 22:55:00 69.5 72.4 60.2 69.5 69.5 7.4 11.3 8.2 296.0 347.9 0.00 0.0000000 84.2
2021-07-23 23:00:00 69.7 72.3 60.4 69.7 69.7 8.1 12.1 8.2 343.5 355.6 0.00 0.0000000 84.1
2021-07-23 23:05:00 69.5 71.6 59.9 69.5 69.5 7.4 11.2 7.5 340.7 350.3 0.00 0.0000000 84.0
2021-07-23 23:10:00 69.4 71.8 59.9 69.4 69.4 7.1 9.4 6.6 3.0 5.9 0.00 0.0000000 83.9
2021-07-23 23:15:00 69.2 71.8 59.7 69.2 69.2 11.5 12.2 7.8 337.1 349.9 0.00 0.0000000 83.8
2021-07-23 23:20:00 69.4 73.0 60.3 69.4 69.4 8.1 11.5 8.7 17.2 353.8 0.00 0.0000000 83.8
2021-07-23 23:25:00 69.1 74.0 60.5 69.1 69.1 8.1 11.9 8.9 321.8 335.9 0.00 0.0000000 83.7
2021-07-23 23:30:00 68.8 73.1 59.8 68.8 68.8 10.6 12.1 9.1 334.7 343.9 0.00 0.0000000 83.6
2021-07-23 23:35:00 68.9 72.8 59.8 68.9 68.9 12.6 12.6 9.2 329.6 350.1 0.00 0.0000000 83.5
2021-07-23 23:40:00 68.6 73.9 60.0 68.6 68.6 7.6 11.9 7.8 0.9 358.3 0.00 0.0000000 83.4
2021-07-23 23:45:00 68.8 74.5 60.3 68.8 68.8 5.1 10.3 7.7 8.1 0.9 0.00 0.0000000 83.4
2021-07-23 23:50:00 68.8 73.7 60.1 68.8 68.8 9.4 11.2 8.6 336.2 353.2 0.00 0.0000000 83.3
2021-07-23 23:55:00 68.7 74.7 60.3 68.7 68.7 6.3 10.8 8.0 4.3 350.5 0.00 0.0000000 83.2
2021-07-24 00:00:00 68.6 74.6 60.2 68.6 68.6 8.5 10.1 7.3 342.6 356.2 0.00 0.0000000 83.2
2021-07-24 00:05:00 68.4 75.8 60.5 68.4 68.4 6.2 8.5 6.3 20.5 350.6 0.00 0.0000000 83.0
2021-07-24 00:10:00 68.7 75.7 60.7 68.7 68.7 6.0 7.2 5.7 1.6 352.6 0.00 0.0000000 83.0
2021-07-24 00:15:00 68.5 75.2 60.4 68.5 68.5 4.0 8.1 5.4 12.0 352.8 0.00 0.0000000 82.9
2021-07-24 00:20:00 68.8 75.8 60.8 68.8 68.8 3.3 5.5 4.0 9.8 9.3 0.00 0.0000000 82.8
2021-07-24 00:25:00 68.8 75.7 60.8 68.8 68.8 4.7 6.2 4.6 340.0 352.5 0.00 0.0000000 82.8
2021-07-24 00:30:00 68.6 74.5 60.2 68.6 68.6 4.4 6.0 4.1 326.9 348.4 0.00 0.0000000 82.7
2021-07-24 00:35:00 68.5 75.5 60.4 68.5 68.5 4.0 4.9 4.0 0.1 339.6 0.00 0.0000000 82.6
2021-07-24 00:40:00 68.5 74.4 60.0 68.5 68.5 5.1 8.1 4.7 15.7 349.8 0.00 0.0000000 82.5
2021-07-24 00:45:00 68.7 74.0 60.1 68.7 68.7 6.2 7.4 5.3 10.9 354.4 0.00 0.0000000 82.5
2021-07-24 00:50:00 68.6 73.2 59.7 68.6 68.6 5.8 6.9 5.6 342.2 351.8 0.00 0.0000000 82.4
2021-07-24 00:55:00 68.5 73.4 59.7 68.5 68.5 6.0 6.5 4.7 6.8 9.2 0.00 0.0000000 82.3
2021-07-24 01:00:00 68.7 74.6 60.3 68.7 68.7 3.1 7.6 5.1 340.2 359.4 0.00 0.0000000 82.3
2021-07-24 01:05:00 68.3 74.1 59.8 68.3 68.3 3.0 5.8 4.5 344.4 347.9 0.00 0.0000000 82.2
2021-07-24 01:10:00 68.4 73.4 59.6 68.4 68.4 4.2 4.9 3.7 334.1 356.5 0.00 0.0000000 82.1
2021-07-24 01:15:00 68.3 73.5 59.5 68.3 68.3 2.1 4.6 3.2 41.0 10.5 0.00 0.0000000 82.1
2021-07-24 01:20:00 68.1 73.9 59.5 68.1 68.1 4.2 4.6 2.5 103.6 61.7 0.00 0.0000000 82.0
2021-07-24 01:25:00 68.5 73.1 59.5 68.5 68.5 4.2 5.1 4.1 340.9 24.6 0.00 0.0000000 81.9
2021-07-24 01:30:00 68.5 73.2 59.6 68.5 68.5 3.0 6.3 4.0 340.3 4.9 0.00 0.0000000 81.9
2021-07-24 01:35:00 68.3 73.8 59.6 68.3 68.3 3.8 5.8 3.9 19.3 9.3 0.00 0.0000000 81.8
2021-07-24 01:40:00 68.2 73.8 59.5 68.2 68.2 3.0 6.7 4.3 331.9 0.6 0.00 0.0000000 81.7
2021-07-24 01:45:00 68.1 74.3 59.6 68.1 68.1 1.9 3.3 2.4 319.8 354.8 0.00 0.0000000 81.7
2021-07-24 01:50:00 68.0 75.5 60.0 68.0 68.0 3.8 4.4 3.5 2.0 349.6 0.00 0.0000000 81.6
2021-07-24 01:55:00 67.9 74.3 59.4 67.9 67.9 4.4 4.6 3.7 12.6 350.9 0.00 0.0000000 81.6
2021-07-24 02:00:00 67.7 76.0 59.8 67.7 67.7 2.4 4.6 2.4 1.4 329.8 0.00 0.0000000 81.5
2021-07-24 02:05:00 67.6 75.5 59.5 67.6 67.6 3.8 4.6 3.2 338.6 335.1 0.00 0.0000000 81.4
2021-07-24 02:10:00 67.7 76.0 59.8 67.7 67.7 2.1 4.6 3.6 317.8 331.1 0.00 0.0000000 81.4
2021-07-24 02:15:00 67.6 76.1 59.8 67.6 67.6 4.9 5.1 3.5 329.6 338.0 0.00 0.0000000 81.3
2021-07-24 02:20:00 67.7 75.7 59.7 67.7 67.7 2.1 4.7 3.1 339.3 337.8 0.00 0.0000000 81.2
2021-07-24 02:25:00 67.1 79.3 60.5 67.1 67.1 1.0 3.8 1.5 252.4 252.2 0.00 0.0000000 81.2
2021-07-24 02:30:00 66.5 81.4 60.6 66.5 66.5 1.3 1.7 0.6 287.8 282.4 0.00 0.0000000 81.2
2021-07-24 02:35:00 66.3 81.4 60.4 66.3 66.3 0.0 1.7 0.8 322.7 299.8 0.00 0.0000000 81.1
2021-07-24 02:40:00 66.2 81.1 60.2 66.2 66.2 0.0 0.0 0.0 218.6 0.0 0.00 0.0000000 81.0
2021-07-24 02:45:00 66.2 82.0 60.6 66.2 66.2 0.0 1.3 0.4 259.8 263.7 0.00 0.0000000 81.0
2021-07-24 02:50:00 66.0 83.3 60.8 66.0 66.0 0.0 0.8 0.0 242.7 271.5 0.00 0.0000000 80.9
2021-07-24 02:55:00 65.7 85.6 61.3 65.7 65.7 2.1 2.1 0.6 263.9 263.1 0.00 0.0000000 80.9
2021-07-24 03:00:00 65.5 85.9 61.2 65.5 65.5 0.0 2.2 1.7 241.8 250.6 0.00 0.0000000 80.8
2021-07-24 03:05:00 65.5 87.1 61.6 65.5 65.5 0.0 0.0 0.0 274.4 0.0 0.00 0.0000000 80.8
2021-07-24 03:10:00 65.3 87.0 61.3 65.3 65.3 0.0 0.0 0.0 267.7 0.0 0.00 0.0000040 80.7
2021-07-24 03:15:00 65.1 87.3 61.2 65.1 65.1 0.0 0.0 0.0 248.8 0.0 0.00 0.0000000 80.6
2021-07-24 03:20:00 65.0 87.3 61.1 65.0 65.0 0.0 0.8 0.0 152.5 228.0 0.00 0.0000000 80.6
2021-07-24 03:25:00 65.1 88.9 61.8 65.1 65.1 1.3 1.3 0.1 277.1 259.1 0.00 0.0000020 80.5
2021-07-24 03:30:00 64.7 89.6 61.6 64.7 64.7 0.0 1.3 0.3 248.8 271.4 0.00 0.0000000 80.5
2021-07-24 03:35:00 64.9 90.6 62.1 64.9 64.9 0.0 0.0 0.0 264.3 0.0 0.00 0.0000020 80.4
2021-07-24 03:40:00 64.8 90.2 61.8 64.8 64.8 1.3 1.3 0.1 291.4 264.7 0.00 0.0000020 80.4
2021-07-24 03:45:00 64.8 89.6 61.6 64.8 64.8 0.0 1.5 0.1 290.4 264.5 0.00 0.0000020 80.3
2021-07-24 03:50:00 64.8 90.5 61.9 64.8 64.8 0.0 0.0 0.0 241.0 0.0 0.00 0.0000000 80.3
2021-07-24 03:55:00 64.7 89.1 61.4 64.7 64.7 0.0 0.0 0.0 190.7 0.0 0.00 0.0000000 80.2
2021-07-24 04:00:00 64.9 89.3 61.7 64.9 64.9 0.0 0.0 0.0 208.0 0.0 0.00 0.0000040 80.2
2021-07-24 04:05:00 64.8 85.4 60.4 64.8 64.8 1.2 2.4 0.7 341.7 5.7 0.00 0.0000040 80.1
2021-07-24 04:10:00 65.4 83.9 60.4 65.4 65.4 0.0 2.2 1.2 342.5 12.9 0.00 0.0000040 80.1
2021-07-24 04:15:00 65.1 88.9 61.8 65.1 65.1 0.0 1.2 0.0 252.8 291.8 0.00 0.0000040 80.0
2021-07-24 04:20:00 64.9 89.0 61.6 64.9 64.9 0.0 0.0 0.0 262.9 0.0 0.00 0.0000020 80.0
2021-07-24 04:25:00 64.8 88.2 61.2 64.8 64.8 0.0 0.0 0.0 258.4 0.0 0.00 0.0000040 79.9
2021-07-24 04:30:00 65.1 89.8 62.0 65.1 65.1 0.0 0.0 0.0 205.1 0.0 0.00 0.0000000 79.8
2021-07-24 04:35:00 64.7 90.4 61.8 64.7 64.7 0.0 0.0 0.0 219.2 0.0 0.00 0.0000000 79.8
2021-07-24 04:40:00 64.5 92.0 62.1 64.5 64.5 0.0 0.0 0.0 210.7 0.0 0.00 0.0000000 79.8
2021-07-24 04:45:00 64.3 92.9 62.2 64.3 64.3 0.0 0.0 0.0 209.8 0.0 0.00 0.0000040 79.7
2021-07-24 04:50:00 64.1 93.5 62.2 64.1 64.1 0.0 2.1 1.0 254.7 251.8 0.00 0.0000020 79.7
2021-07-24 04:55:00 64.0 94.0 62.2 64.0 64.0 1.3 1.3 0.2 242.4 257.7 0.00 0.0000061 79.6
2021-07-24 05:00:00 63.8 93.2 61.8 63.8 63.8 2.6 3.0 2.3 221.5 232.4 0.00 0.0000020 79.6
2021-07-24 05:05:00 64.1 93.6 62.3 64.1 64.1 1.5 3.0 2.1 236.2 236.5 0.00 0.0000040 79.5
2021-07-24 05:10:00 63.9 94.1 62.2 63.9 63.9 1.5 1.7 0.7 233.2 225.5 0.00 0.0000000 79.5
2021-07-24 05:15:00 64.0 95.0 62.6 64.0 64.0 0.0 2.8 1.3 270.8 247.1 0.00 0.0000020 79.4
2021-07-24 05:20:00 64.0 94.8 62.4 64.0 64.0 0.0 3.1 1.4 277.1 261.6 0.00 0.0000000 79.4
2021-07-24 05:25:00 63.9 95.5 62.6 63.9 63.9 3.0 3.0 1.1 270.5 255.5 0.00 0.0000000 79.3
2021-07-24 05:30:00 63.9 95.5 62.6 63.9 63.9 0.8 3.8 2.4 263.9 271.2 0.00 0.0000000 79.3
2021-07-24 05:35:00 64.0 95.3 62.6 64.0 64.0 3.0 3.0 1.7 254.9 257.9 0.00 0.0000000 79.2
2021-07-24 05:40:00 64.3 94.8 62.7 64.3 64.3 0.0 3.1 1.2 249.4 264.2 0.00 0.0000020 79.2
2021-07-24 05:45:00 64.2 95.0 62.8 64.2 64.2 0.0 1.5 0.2 275.4 242.3 0.00 0.0000040 79.2
2021-07-24 05:50:00 64.1 94.1 62.4 64.1 64.1 0.0 0.8 0.0 249.5 325.2 0.00 0.0000141 79.1
2021-07-24 05:55:00 64.1 92.4 61.9 64.1 64.1 0.0 0.0 0.0 240.4 0.0 0.00 0.0000162 79.1
2021-07-24 06:00:00 64.3 91.8 61.8 64.3 64.3 1.3 1.3 0.1 268.6 269.6 0.00 0.0000606 79.0
2021-07-24 06:05:00 64.6 90.9 61.9 64.6 64.6 0.0 1.9 1.1 274.2 274.9 0.00 0.0001152 79.0
2021-07-24 06:10:00 64.7 90.2 61.8 64.7 64.7 0.0 0.8 0.1 270.7 277.2 0.00 0.0003476 78.9
2021-07-24 06:15:00 64.7 90.5 61.9 64.7 64.7 1.5 2.2 1.3 237.3 249.4 0.00 0.0007941 78.9
2021-07-24 06:20:00 64.6 91.0 61.9 64.6 64.6 0.0 2.1 0.6 259.0 242.7 0.00 0.0008750 78.9
2021-07-24 06:25:00 65.0 90.0 62.0 65.0 65.0 0.0 1.0 0.1 289.8 259.8 0.00 0.0014711 78.8
2021-07-24 06:30:00 64.8 89.6 61.6 64.8 64.8 0.0 0.0 0.0 252.9 0.0 0.00 0.0026451 78.8
2021-07-24 06:35:00 65.0 90.3 62.0 65.0 65.0 0.0 0.0 0.0 241.2 0.0 0.00 0.0042920 78.7
2021-07-24 06:40:00 64.7 91.1 62.0 64.7 64.7 0.0 0.0 0.0 283.7 0.0 0.00 0.0061855 78.7
2021-07-24 06:45:00 65.0 90.4 62.1 65.0 65.0 0.0 1.5 0.2 291.1 331.5 0.00 0.0083699 78.7
2021-07-24 06:50:00 65.0 90.0 62.0 65.0 65.0 2.1 2.4 0.2 290.3 330.8 0.00 0.0105744 78.7
2021-07-24 06:55:00 65.7 85.6 61.3 65.7 65.7 1.5 3.0 1.8 52.1 345.3 0.00 0.0133325 78.6
2021-07-24 07:00:00 66.4 83.7 61.3 66.4 66.4 0.0 2.6 1.0 62.7 51.3 0.00 0.0160264 78.6
2021-07-24 07:05:00 66.6 85.9 62.2 66.6 66.6 2.6 2.6 0.8 278.4 282.2 0.00 0.0196455 78.5
2021-07-24 07:10:00 66.5 87.1 62.6 66.5 66.5 1.0 3.0 0.8 265.4 274.6 0.00 0.0228396 78.5
2021-07-24 07:15:00 66.3 87.9 62.7 66.3 66.3 1.9 2.4 2.0 244.8 249.6 0.00 0.0278488 78.5
2021-07-24 07:20:00 66.8 86.8 62.7 66.8 66.8 1.9 2.4 1.5 194.5 216.7 0.00 0.0371682 78.5
2021-07-24 07:25:00 67.0 85.9 62.6 67.0 67.0 1.7 2.1 1.1 190.3 203.0 0.00 0.0425012 78.4
2021-07-24 07:30:00 67.8 82.5 62.3 67.8 67.8 1.9 2.1 1.4 199.4 208.3 0.00 0.0558883 78.4
2021-07-24 07:35:00 68.2 83.3 63.0 68.2 68.2 1.5 2.2 1.3 227.7 210.9 0.00 0.0605712 78.4
2021-07-24 07:40:00 69.0 83.2 63.6 69.0 69.0 1.7 2.1 0.8 131.9 196.7 0.00 0.0668098 78.4
2021-07-24 07:45:00 69.2 83.1 63.9 69.2 69.2 1.7 2.4 1.7 152.1 162.1 0.00 0.0719413 78.4
2021-07-24 07:50:00 69.5 81.4 63.6 69.5 69.5 1.9 2.8 2.0 149.7 151.5 0.00 0.0708523 78.3
2021-07-24 07:55:00 70.0 79.6 63.4 70.0 70.0 2.1 2.6 1.3 168.7 148.9 0.00 0.0792424 78.3
2021-07-24 08:00:00 70.2 78.5 63.2 70.2 70.2 3.0 3.3 1.5 195.6 181.2 0.00 0.0876987 78.3
2021-07-24 08:05:00 70.0 79.4 63.4 70.0 70.0 0.8 2.4 1.7 200.7 188.8 0.00 0.0814088 78.3
2021-07-24 08:10:00 70.6 76.9 63.0 70.6 70.6 1.7 3.0 1.6 146.9 132.6 0.00 0.0928255 78.3
2021-07-24 08:15:00 70.6 77.3 63.1 70.6 70.6 2.8 3.7 2.5 174.7 174.7 0.00 0.1009808 78.3
2021-07-24 08:20:00 70.8 79.2 64.0 70.8 70.8 2.2 3.8 2.4 121.4 109.7 0.00 0.1055317 78.3
2021-07-24 08:25:00 71.6 76.1 63.6 71.6 71.6 0.0 3.3 1.6 80.5 108.5 0.00 0.0941177 78.3
2021-07-24 08:30:00 71.5 78.8 64.6 71.5 71.5 3.0 3.5 1.6 216.7 227.8 0.00 0.0710522 78.3
2021-07-24 08:35:00 70.4 77.9 63.1 70.4 70.4 3.0 4.6 3.6 204.5 231.0 0.00 0.0999911 78.3
2021-07-24 08:40:00 71.6 75.9 63.6 71.6 71.6 2.6 3.3 2.3 152.6 174.4 0.00 0.1398074 78.3
2021-07-24 08:45:00 72.4 72.4 63.0 72.4 72.4 3.1 4.0 2.7 164.3 153.1 0.00 0.1473027 78.4
2021-07-24 08:50:00 73.0 73.1 63.9 73.0 73.0 5.1 5.1 3.1 193.5 174.0 0.00 0.1536372 78.4
2021-07-24 08:55:00 72.8 71.3 63.0 72.8 72.8 3.1 6.2 3.4 174.4 184.9 0.00 0.1554085 78.4
2021-07-24 09:00:00 73.0 69.2 62.3 73.0 73.0 4.2 4.7 3.6 195.9 183.9 0.00 0.1559390 78.4
2021-07-24 09:05:00 73.2 67.5 61.8 73.2 73.2 4.0 4.7 3.3 231.3 215.8 0.00 0.1343225 78.5
2021-07-24 09:10:00 73.6 69.5 63.0 73.6 73.6 3.0 4.2 3.3 170.3 201.0 0.00 0.1729087 78.5
2021-07-24 09:15:00 75.0 65.0 62.4 75.0 75.0 2.1 3.5 2.3 235.3 149.8 0.00 0.1903551 78.5
2021-07-24 09:20:00 76.4 59.5 61.3 76.4 76.4 3.0 5.1 2.2 168.6 148.7 0.00 0.1941022 78.6
2021-07-24 09:25:00 77.6 60.1 62.7 77.6 77.6 2.8 3.8 2.0 114.3 124.5 0.00 0.1854109 78.6
2021-07-24 09:30:00 77.3 56.5 60.6 77.3 77.3 1.7 4.4 2.4 127.3 110.0 0.00 0.2012923 78.7
2021-07-24 09:35:00 78.3 55.3 60.9 78.3 78.3 2.4 3.3 1.8 118.8 135.4 0.00 0.1951914 78.7
2021-07-24 09:40:00 77.5 55.0 60.1 77.5 77.5 2.8 5.8 3.2 177.1 165.1 0.00 0.1870178 78.8
2021-07-24 09:45:00 77.1 59.1 61.8 77.1 77.1 2.8 6.0 3.1 243.4 187.3 0.00 0.1653423 78.9
2021-07-24 09:50:00 76.8 58.1 61.0 76.8 76.8 2.1 4.4 3.1 134.2 175.4 0.00 0.1858486 79.0
2021-07-24 09:55:00 78.2 58.7 62.6 78.2 78.2 2.6 3.3 1.6 139.8 203.9 0.00 0.2318792 79.0
2021-07-24 10:00:00 77.6 57.1 61.2 77.6 77.6 1.7 5.1 3.8 88.5 197.4 0.00 0.2553413 79.1
2021-07-24 10:05:00 78.8 56.3 62.0 78.8 78.8 3.0 4.9 2.7 100.2 127.7 0.00 0.2594888 79.2
2021-07-24 10:10:00 78.3 54.7 60.6 78.3 78.3 4.2 5.6 3.4 134.5 148.7 0.00 0.2198078 79.3
2021-07-24 10:15:00 78.8 55.0 61.3 78.8 78.8 2.8 4.0 2.1 201.8 158.8 0.00 0.1680690 79.4
2021-07-24 10:20:00 78.6 56.2 61.7 78.6 78.6 4.9 5.8 3.6 226.6 187.9 0.00 0.1687596 79.5
2021-07-24 10:25:00 78.2 58.0 62.2 78.2 78.2 4.4 6.3 3.7 190.5 218.6 0.00 0.1592868 79.6
2021-07-24 10:30:00 77.5 58.5 61.8 77.5 77.5 1.3 5.3 3.2 125.8 152.1 0.00 0.1303048 79.7
2021-07-24 10:35:00 78.6 60.5 63.8 78.6 78.6 2.1 4.0 2.1 177.8 168.2 0.00 0.1280097 79.8
2021-07-24 10:40:00 78.0 56.4 61.3 78.0 78.0 2.2 5.5 3.3 182.7 198.2 0.00 0.1241839 80.0
2021-07-24 10:45:00 77.3 56.1 60.5 77.3 77.3 1.0 5.3 3.4 277.5 225.5 0.00 0.1344843 80.0
2021-07-24 10:50:00 78.1 58.5 62.4 78.1 78.1 2.1 3.5 1.8 211.1 184.7 0.00 0.0934949 80.2
2021-07-24 10:55:00 78.2 55.5 61.0 78.2 78.2 2.4 4.0 2.6 153.7 140.0 0.00 0.0807562 80.3
2021-07-24 11:00:00 78.8 58.7 63.1 78.8 78.8 2.2 2.8 2.1 138.2 158.8 0.00 0.1178210 80.4
2021-07-24 11:05:00 78.9 55.9 61.8 78.9 78.9 2.8 4.7 3.1 216.6 176.6 0.00 0.1420084 80.5
2021-07-24 11:10:00 79.3 57.1 62.7 79.3 79.3 1.9 4.2 2.0 146.3 200.1 0.00 0.1304795 80.6
2021-07-24 11:15:00 79.1 53.9 61.0 79.1 79.1 4.7 4.7 2.6 134.1 118.4 0.00 0.1245406 80.6
2021-07-24 11:20:00 78.9 53.7 60.7 78.9 78.9 4.2 4.6 2.7 68.7 77.2 0.00 0.1216279 80.7
2021-07-24 11:25:00 79.4 53.6 61.1 79.4 79.4 3.1 4.2 2.8 118.7 103.1 0.00 0.1210691 80.9
2021-07-24 11:30:00 79.7 54.6 61.9 79.7 79.7 1.9 4.7 2.7 106.8 148.7 0.00 0.1199940 80.9
2021-07-24 11:35:00 80.0 54.2 62.0 80.0 80.0 1.5 4.9 2.6 139.4 147.2 0.00 0.1150832 81.0
2021-07-24 11:40:00 80.0 51.5 60.5 80.0 80.0 6.5 6.5 3.1 108.5 118.2 0.00 0.1144477 81.1
2021-07-24 11:45:00 79.6 54.1 61.5 79.6 79.6 4.0 6.2 4.3 98.0 120.7 0.00 0.1133663 81.1
2021-07-24 11:50:00 79.8 53.8 61.6 79.8 79.8 3.8 5.3 3.5 139.9 125.3 0.00 0.1123733 81.2
2021-07-24 11:55:00 79.5 53.2 61.0 79.5 79.5 4.2 5.6 4.1 155.6 127.8 0.00 0.1134741 81.2
2021-07-24 12:00:00 79.7 54.2 61.7 79.7 79.7 2.6 6.3 4.2 144.7 119.9 0.00 0.1138548 81.3
2021-07-24 12:05:00 80.3 51.4 60.7 80.3 81.2 3.7 6.3 4.3 100.8 115.9 0.00 0.1178820 81.4
2021-07-24 12:10:00 80.2 50.9 60.4 80.2 81.1 2.8 5.6 3.7 113.1 120.2 0.00 0.1069888 81.4
2021-07-24 12:15:00 80.3 50.2 60.1 80.3 81.1 3.7 4.7 3.6 140.3 128.8 0.00 0.1181325 81.5
2021-07-24 12:20:00 80.7 51.5 61.2 80.7 81.6 3.0 4.7 3.6 170.5 153.6 0.00 0.1535055 81.6
2021-07-24 12:25:00 81.4 52.6 62.5 81.4 82.5 1.7 5.8 2.9 153.8 125.5 0.00 0.1469053 81.6
2021-07-24 12:30:00 81.2 51.1 61.4 81.2 82.1 5.3 6.3 4.3 161.5 140.2 0.00 0.1429609 81.7
2021-07-24 12:35:00 80.5 54.2 62.4 80.5 81.7 3.5 5.8 4.2 176.6 183.4 0.00 0.1387377 81.7
2021-07-24 12:40:00 80.3 53.7 62.0 80.3 81.4 2.6 5.1 3.6 209.7 219.0 0.00 0.1417864 81.8
2021-07-24 12:45:00 80.1 55.8 62.9 80.1 81.5 6.0 9.0 5.2 227.5 224.8 0.00 0.1658275 81.8
2021-07-24 12:50:00 80.1 54.8 62.4 80.1 81.4 2.2 6.5 4.2 233.7 222.6 0.00 0.1734854 81.9
2021-07-24 12:55:00 80.7 52.3 61.6 80.7 81.7 1.7 5.8 3.4 145.4 187.7 0.00 0.1843822 82.0
2021-07-24 13:00:00 81.5 49.3 60.7 81.5 82.1 3.7 5.6 2.9 134.5 127.4 0.00 0.1783020 82.0
2021-07-24 13:05:00 82.1 53.6 63.6 82.1 83.5 3.3 4.6 2.9 162.0 113.7 0.00 0.2314160 82.1
2021-07-24 13:10:00 81.5 54.0 63.2 81.5 82.8 3.0 7.2 4.3 216.1 220.0 0.00 0.2086313 82.1
2021-07-24 13:15:00 81.6 51.5 62.0 81.6 82.6 1.7 4.9 2.8 93.2 168.5 0.00 0.2168148 82.2
2021-07-24 13:20:00 81.3 54.4 63.2 81.3 82.6 2.6 6.0 3.4 263.0 238.6 0.00 0.1853780 82.3
2021-07-24 13:25:00 81.7 54.3 63.6 81.7 83.1 1.7 5.8 2.9 198.3 254.5 0.00 0.1795130 82.3
2021-07-24 13:30:00 82.3 52.5 63.2 82.3 83.5 3.7 5.3 3.1 251.3 182.8 0.00 0.1532822 82.4
2021-07-24 13:35:00 82.1 51.8 62.6 82.1 83.2 4.6 6.2 3.8 217.0 227.1 0.00 0.1788228 82.5
2021-07-24 13:40:00 82.3 48.7 61.1 82.3 82.9 2.1 6.9 4.5 243.3 210.3 0.00 0.2107328 82.6
2021-07-24 13:45:00 83.1 47.6 61.2 83.1 83.6 3.1 4.7 3.1 185.1 199.7 0.00 0.2446865 82.7
2021-07-24 13:50:00 83.8 42.9 58.9 83.8 83.6 3.7 7.1 3.6 255.8 176.7 0.00 0.2567127 82.7
2021-07-24 13:55:00 84.6 46.7 62.0 84.6 85.2 5.5 8.0 3.7 175.9 193.2 0.00 0.3044475 82.9
2021-07-24 14:00:00 85.0 46.0 61.9 85.0 85.5 6.3 6.3 3.1 230.2 242.3 0.00 0.3027864 83.0
2021-07-24 14:05:00 85.5 44.2 61.2 85.5 85.7 4.0 7.4 4.4 179.8 173.8 0.00 0.3009977 83.0
2021-07-24 14:10:00 85.0 41.6 59.1 85.0 84.6 4.9 7.8 5.0 219.9 186.9 0.00 0.3025356 83.1
2021-07-24 14:15:00 85.4 42.2 59.9 85.4 85.2 2.2 6.2 2.8 119.6 145.2 0.00 0.2827069 83.3
2021-07-24 14:20:00 85.9 40.6 59.2 85.9 85.5 6.3 7.2 3.5 200.4 141.8 0.00 0.2444020 83.4
2021-07-24 14:25:00 85.9 40.3 59.0 85.9 85.4 4.2 7.6 5.3 218.7 195.6 0.00 0.2359615 83.5
2021-07-24 14:30:00 84.6 41.3 58.6 84.6 84.2 3.5 5.6 3.6 260.5 233.8 0.00 0.2014229 83.6
2021-07-24 14:35:00 84.5 43.6 60.0 84.5 84.5 7.4 8.8 4.0 204.4 225.1 0.00 0.1918646 83.8
2021-07-24 14:40:00 84.9 44.1 60.6 84.9 85.0 6.7 8.1 6.3 179.3 187.6 0.00 0.1919836 83.9
2021-07-24 14:45:00 85.6 43.0 60.5 85.6 85.6 5.3 6.2 4.1 158.8 156.0 0.00 0.1614870 84.1
2021-07-24 14:50:00 84.9 44.7 61.1 84.9 85.2 2.1 6.5 4.2 133.1 144.3 0.00 0.1661376 84.2
2021-07-24 14:55:00 85.3 39.1 57.6 85.3 85.3 6.3 7.4 2.9 177.1 172.0 0.00 0.1872710 84.3
2021-07-24 15:00:00 85.7 39.5 58.2 85.7 85.7 5.1 7.2 4.3 123.4 178.1 0.00 0.2008514 84.4
2021-07-24 15:05:00 85.2 42.6 60.0 85.2 85.1 5.1 8.0 4.8 266.5 213.6 0.00 0.2342395 84.5
2021-07-24 15:10:00 84.9 41.5 58.9 84.9 84.5 3.1 7.1 4.6 243.7 223.2 0.00 0.2337905 84.6
2021-07-24 15:15:00 86.3 39.7 58.9 86.3 86.3 3.5 6.9 4.4 132.5 178.6 0.00 0.2619113 84.7
2021-07-24 15:20:00 87.7 40.5 60.7 87.7 87.6 6.0 7.2 3.6 181.6 193.6 0.00 0.2674521 84.8
2021-07-24 15:25:00 87.2 36.1 57.1 87.2 87.2 3.3 9.4 5.5 172.9 194.1 0.00 0.2756089 84.9
2021-07-24 15:30:00 87.4 36.9 57.9 87.4 87.4 5.6 7.6 4.0 210.2 169.7 0.00 0.2550650 85.0
2021-07-24 15:35:00 87.3 38.5 59.0 87.3 87.3 1.7 6.9 3.8 235.5 197.0 0.00 0.2075972 85.1
2021-07-24 15:40:00 87.7 37.5 58.6 87.7 87.7 5.1 8.0 4.3 161.0 167.5 0.00 0.1770836 85.2
2021-07-24 15:45:00 87.9 37.2 58.6 87.9 87.9 6.0 7.8 4.1 147.4 163.0 0.00 0.1810593 85.3
2021-07-24 15:50:00 87.9 36.9 58.3 87.9 87.9 7.2 7.4 4.6 132.2 142.9 0.00 0.2314613 85.4
2021-07-24 15:55:00 88.0 39.0 60.0 88.0 88.0 3.7 8.0 4.1 135.5 150.8 0.00 0.1672924 85.5
2021-07-24 16:00:00 86.7 40.0 59.5 86.7 86.2 6.0 8.1 5.6 159.9 116.3 0.00 0.1475912 85.6
2021-07-24 16:05:00 87.5 39.3 59.7 87.5 87.5 3.7 7.4 5.1 129.2 137.0 0.00 0.2800773 85.7
2021-07-24 16:10:00 87.9 36.1 57.7 87.9 87.9 4.2 8.8 5.8 120.0 116.8 0.00 0.2128070 85.8
2021-07-24 16:15:00 87.0 36.2 56.9 87.0 87.0 5.1 7.4 4.9 174.0 128.2 0.00 0.1708854 85.9
2021-07-24 16:20:00 87.8 36.5 57.9 87.8 87.8 5.3 7.1 5.1 146.0 125.6 0.00 0.2344268 85.9
2021-07-24 16:25:00 86.8 36.7 57.2 86.8 86.8 3.1 8.5 5.7 147.5 118.6 0.00 0.1454827 86.0
2021-07-24 16:30:00 85.9 38.2 57.6 85.9 85.9 3.5 7.2 4.6 182.7 173.7 0.00 0.0566115 86.1
2021-07-24 16:35:00 85.7 39.8 58.5 85.7 85.7 8.5 8.7 4.5 270.8 224.8 0.00 0.0470019 86.2
2021-07-24 16:40:00 81.2 52.5 62.2 81.2 82.3 8.0 17.8 10.1 214.3 270.2 0.00 0.0444643 86.2
2021-07-24 16:45:00 80.8 52.2 61.6 80.8 81.8 9.9 14.9 9.7 229.3 270.6 0.00 0.0592008 86.2
2021-07-24 16:50:00 80.9 51.5 61.3 80.9 81.8 8.3 14.9 9.3 252.8 272.6 0.00 0.0708196 86.3
2021-07-24 16:55:00 82.1 50.4 61.9 82.1 83.0 3.8 12.2 6.6 306.7 290.9 0.00 0.1492580 86.3
2021-07-24 17:00:00 82.7 49.0 61.6 82.7 83.4 7.4 11.7 7.3 264.3 275.6 0.00 0.1736559 86.3
2021-07-24 17:05:00 82.9 49.0 61.8 82.9 83.6 12.4 12.4 7.3 298.1 272.0 0.00 0.1767931 86.3
2021-07-24 17:10:00 82.5 50.8 62.4 82.5 83.5 9.9 11.2 7.1 264.4 291.2 0.00 0.0946275 86.3
2021-07-24 17:15:00 81.2 52.5 62.2 81.2 82.3 9.0 11.9 9.0 309.8 274.0 0.00 0.0935940 86.3
2021-07-24 17:20:00 81.4 52.8 62.5 81.4 82.5 8.3 11.7 8.7 242.3 266.1 0.00 0.1230395 86.3
2021-07-24 17:25:00 81.5 52.5 62.4 81.5 82.6 5.8 11.7 7.2 263.0 271.9 0.00 0.1030690 86.3
2021-07-24 17:30:00 80.6 53.2 62.0 80.6 81.7 8.1 10.8 7.1 302.4 281.9 0.00 0.0819192 86.3
2021-07-24 17:35:00 80.2 53.8 61.9 80.2 81.3 8.7 12.2 7.4 309.1 271.5 0.00 0.0767178 86.2
2021-07-24 17:40:00 80.1 53.0 61.4 80.1 81.2 3.8 10.8 6.9 298.0 277.8 0.00 0.0733101 86.2
2021-07-24 17:45:00 80.4 53.7 62.1 80.4 81.6 3.3 7.2 5.0 259.9 273.9 0.00 0.0641819 86.2
2021-07-24 17:50:00 80.8 52.0 61.5 80.8 81.8 4.6 6.7 3.4 276.6 291.5 0.00 0.0621050 86.1
2021-07-24 17:55:00 80.7 53.4 62.2 80.7 81.9 3.0 8.1 4.0 283.4 281.7 0.00 0.0483345 86.1
2021-07-24 18:00:00 80.6 53.8 62.3 80.6 81.8 2.4 9.7 4.7 303.4 327.8 0.00 0.0419229 86.1
2021-07-24 18:05:00 79.9 54.3 62.0 79.9 79.9 4.0 10.3 4.8 315.3 318.4 0.00 0.0402715 86.0
2021-07-24 18:10:00 79.8 54.1 61.7 79.8 79.8 4.7 8.3 4.8 2.3 312.5 0.00 0.0381348 86.0
2021-07-24 18:15:00 79.7 53.3 61.3 79.7 79.7 4.7 8.1 4.3 308.3 318.4 0.00 0.0374918 85.9
2021-07-24 18:20:00 80.0 53.9 61.9 80.0 81.2 3.8 9.7 4.6 14.1 335.2 0.00 0.0373204 85.8
2021-07-24 18:25:00 79.8 54.3 61.8 79.8 79.8 4.7 8.8 4.0 40.3 334.9 0.00 0.0364734 85.8
2021-07-24 18:30:00 79.8 54.9 62.1 79.8 79.8 5.8 9.4 6.3 25.9 354.4 0.00 0.0355360 85.8
2021-07-24 18:35:00 79.8 53.2 61.2 79.8 79.8 5.6 9.2 5.6 6.3 5.5 0.00 0.0344399 85.7
2021-07-24 18:40:00 79.8 54.4 61.9 79.8 79.8 3.7 7.2 4.7 336.1 334.6 0.00 0.0323389 85.6
2021-07-24 18:45:00 79.5 54.5 61.6 79.5 79.5 5.3 8.0 5.2 13.9 335.6 0.00 0.0326117 85.6
2021-07-24 18:50:00 79.4 53.7 61.2 79.4 79.4 8.5 8.5 6.6 61.4 0.7 0.00 0.0285396 85.5
2021-07-24 18:55:00 79.3 53.9 61.2 79.3 79.3 4.9 8.1 6.2 340.1 344.4 0.00 0.0249422 85.5
2021-07-24 19:00:00 79.6 53.4 61.2 79.6 79.6 5.1 8.8 5.4 340.0 355.8 0.00 0.0220330 85.4
2021-07-24 19:05:00 79.1 53.5 60.7 79.1 79.1 8.5 8.7 7.0 331.2 347.9 0.00 0.0196300 85.4
2021-07-24 19:10:00 79.3 53.9 61.2 79.3 79.3 8.3 8.8 6.5 329.4 346.1 0.00 0.0178675 85.3
2021-07-24 19:15:00 78.9 54.5 61.1 78.9 78.9 8.0 9.9 7.5 338.7 340.8 0.00 0.0153498 85.2
2021-07-24 19:20:00 78.6 54.5 60.8 78.6 78.6 4.6 9.9 6.4 328.2 337.6 0.00 0.0139788 85.1
2021-07-24 19:25:00 78.9 54.9 61.4 78.9 78.9 3.5 8.0 4.9 330.9 328.7 0.00 0.0135368 85.0
2021-07-24 19:30:00 78.6 55.4 61.3 78.6 78.6 2.8 7.1 3.4 292.3 317.0 0.00 0.0125432 85.0
2021-07-24 19:35:00 78.4 55.7 61.3 78.4 78.4 2.1 4.6 2.9 295.1 301.9 0.00 0.0113624 84.9
2021-07-24 19:40:00 78.1 56.6 61.4 78.1 78.1 5.1 5.1 2.8 292.9 313.2 0.00 0.0095014 84.8
2021-07-24 19:45:00 78.1 57.7 61.9 78.1 78.1 3.0 4.2 2.4 333.7 300.4 0.00 0.0079126 84.8
2021-07-24 19:50:00 77.6 58.0 61.7 77.6 77.6 2.2 5.8 2.9 259.6 310.0 0.00 0.0062470 84.7
2021-07-24 19:55:00 77.4 58.2 61.6 77.4 77.4 3.0 4.2 2.3 317.6 302.4 0.00 0.0045289 84.6
2021-07-24 20:00:00 77.3 56.9 60.8 77.3 77.3 3.0 8.7 4.8 310.6 321.4 0.00 0.0029277 84.6
2021-07-24 20:05:00 77.1 57.5 60.9 77.1 77.1 4.9 8.0 5.4 326.5 334.7 0.00 0.0016032 84.5
2021-07-24 20:10:00 76.9 57.6 60.8 76.9 76.9 3.1 6.2 3.8 303.5 330.7 0.00 0.0007814 84.4
2021-07-24 20:15:00 77.0 58.0 61.1 77.0 77.0 4.7 6.5 3.8 309.7 331.4 0.00 0.0004422 84.3
2021-07-24 20:20:00 76.7 57.7 60.7 76.7 76.7 3.7 6.2 4.5 330.2 336.1 0.00 0.0002524 84.3
2021-07-24 20:25:00 76.8 57.8 60.8 76.8 76.8 4.6 5.5 3.4 330.0 335.2 0.00 0.0001070 84.2
2021-07-24 20:30:00 76.7 58.1 60.8 76.7 76.7 5.5 6.0 4.7 0.6 338.2 0.00 0.0000081 84.1
2021-07-24 20:35:00 76.8 56.4 60.1 76.8 76.8 6.5 7.4 6.0 343.7 348.4 0.00 0.0000000 84.0
2021-07-24 20:40:00 77.1 56.5 60.5 77.1 77.1 4.9 6.3 5.1 344.3 3.6 0.00 0.0000000 84.0
2021-07-24 20:45:00 76.9 56.2 60.1 76.9 76.9 4.6 6.0 4.8 338.1 355.4 0.00 0.0000020 83.9
2021-07-24 20:50:00 76.8 56.5 60.2 76.8 76.8 4.4 5.5 4.4 0.1 0.7 0.00 0.0000000 83.8
2021-07-24 20:55:00 76.8 57.4 60.6 76.8 76.8 3.8 5.1 3.6 330.1 344.2 0.00 0.0000000 83.7
2021-07-24 21:00:00 76.8 60.2 62.0 76.8 76.8 1.7 5.1 2.5 270.5 300.1 0.00 0.0000000 83.7
2021-07-24 21:05:00 75.9 62.0 62.0 75.9 75.9 1.7 2.4 1.5 249.9 266.0 0.00 0.0000000 83.6
2021-07-24 21:10:00 75.2 64.2 62.3 75.2 75.2 1.9 3.0 2.1 248.2 248.1 0.00 0.0000000 83.5
2021-07-24 21:15:00 74.8 64.3 62.0 74.8 74.8 3.1 3.1 2.5 258.7 256.2 0.00 0.0000000 83.4
2021-07-24 21:20:00 74.6 63.2 61.3 74.6 74.6 3.3 3.8 2.9 225.0 253.7 0.00 0.0000000 83.4
2021-07-24 21:25:00 74.9 63.4 61.6 74.9 74.9 3.0 3.7 2.7 293.7 261.5 0.00 0.0000000 83.3
2021-07-24 21:30:00 74.7 64.3 61.8 74.7 74.7 2.1 3.5 2.6 285.7 259.4 0.00 0.0000000 83.2
2021-07-24 21:35:00 74.6 65.3 62.2 74.6 74.6 1.5 2.6 1.6 253.3 273.3 0.00 0.0000020 83.1
2021-07-24 21:40:00 74.4 66.6 62.6 74.4 74.4 2.1 3.0 2.0 273.7 247.4 0.00 0.0000000 83.1

Data is courtesy of the NM Climate Center. DO NOT USE IN LEGAL PROCEEDINGS.